createdAt,value
2022-12-05T00:00:53.075Z,93262.63
2022-12-05T00:03:19.427Z,93268.56
2022-12-05T00:05:45.800Z,93263.41
2022-12-05T00:08:12.197Z,93278.75
2022-12-05T00:10:38.970Z,93259.88
2022-12-05T00:13:05.342Z,93258.72
2022-12-05T00:15:31.827Z,93258.72
2022-12-05T00:17:58.188Z,93212.28
2022-12-05T00:20:24.536Z,93212.09
2022-12-05T00:22:50.920Z,93232.09
2022-12-05T00:25:17.416Z,93213.06
2022-12-05T00:27:43.781Z,93196.44
2022-12-05T00:30:10.444Z,93213.25
2022-12-05T00:32:36.781Z,93183.44
2022-12-05T00:35:03.254Z,93182.94
2022-12-05T00:37:29.611Z,93169.06
2022-12-05T00:39:56.280Z,93178.22
2022-12-05T00:42:22.863Z,93178.56
2022-12-05T00:44:49.795Z,93177.59
2022-12-05T00:47:16.437Z,93191.19
2022-12-05T00:49:42.788Z,93180.19
2022-12-05T00:52:09.202Z,93167.91
2022-12-05T00:54:35.524Z,93170.31
2022-12-05T00:57:01.873Z,93165.16
2022-12-05T00:59:28.243Z,93154.94
2022-12-05T01:01:54.691Z,93142.66
2022-12-05T01:04:22.889Z,93161.69
2022-12-05T01:06:49.586Z,93158.13
2022-12-05T01:09:18.446Z,93150.06
2022-12-05T01:11:44.838Z,93159.28
2022-12-05T01:14:12.359Z,93173.97
2022-12-05T01:16:39.536Z,93167.84
2022-12-05T01:19:08.531Z,93181.09
2022-12-05T01:21:34.875Z,93173.97
2022-12-05T01:24:01.252Z,93182.69
2022-12-05T01:26:27.587Z,93163.28
2022-12-05T01:28:54.049Z,93161.19
2022-12-05T01:31:29.210Z,93154.22
2022-12-05T01:33:56.878Z,93163.28
2022-12-05T01:36:23.635Z,93171.03
2022-12-05T01:38:50.165Z,93166.34
2022-12-05T01:41:25.484Z,93156.47
2022-12-05T01:43:58.008Z,93167.13
2022-12-05T01:46:25.174Z,93156.47
2022-12-05T01:48:52.649Z,93160.66
2022-12-05T01:51:19.285Z,93152.28
2022-12-05T01:53:45.667Z,93152.28
2022-12-05T01:56:12.459Z,93150.31
2022-12-05T01:58:38.889Z,93143.84
2022-12-05T02:01:05.413Z,93151.16
2022-12-05T02:03:31.867Z,93168.94
2022-12-05T02:05:58.245Z,93156.66
2022-12-05T02:08:24.672Z,93160.81
2022-12-05T02:10:53.794Z,93158.41
2022-12-05T02:13:35.430Z,93155.03
2022-12-05T02:16:06.040Z,93169.72
2022-12-05T02:18:41.685Z,93160.66
2022-12-05T02:21:26.777Z,93152.91
2022-12-05T02:24:30.849Z,93149.72
2022-12-05T02:27:27.192Z,93167.31
2022-12-05T02:29:53.531Z,93174.44
2022-12-05T02:32:43.757Z,93159.75
2022-12-05T02:35:23.200Z,93176.56
2022-12-05T02:37:54.498Z,93174.31
2022-12-05T02:40:33.952Z,93163.66
2022-12-05T02:43:07.396Z,93165.59
2022-12-05T02:45:34.547Z,93169.16
2022-12-05T02:48:01.024Z,93173.06
2022-12-05T02:50:35.234Z,93156.25
2022-12-05T02:53:12.477Z,93161.44
2022-12-05T02:55:40.135Z,93140.44
2022-12-05T02:58:11.354Z,93156.09
2022-12-05T03:00:38.826Z,93144.63
2022-12-05T03:03:11.128Z,93146.94
2022-12-05T03:05:40.476Z,93150.50
2022-12-05T03:08:08.502Z,93156.25
2022-12-05T03:10:34.939Z,93155.66
2022-12-05T03:13:05.776Z,93148.53
2022-12-05T03:15:34.816Z,93131.72
2022-12-05T03:18:06.610Z,93130.75
2022-12-05T03:20:56.524Z,93114.75
2022-12-05T03:23:38.295Z,93125.91
2022-12-05T03:26:17.718Z,93122.38
2022-12-05T03:28:55.659Z,93114.28
2022-12-05T03:31:27.641Z,93104.44
2022-12-05T03:33:54.932Z,93094.38
2022-12-05T03:36:23.743Z,93082.25
2022-12-05T03:39:10.585Z,93091.16
2022-12-05T03:41:48.994Z,93100.06
2022-12-05T03:44:33.154Z,93112.84
2022-12-05T03:47:02.283Z,93101.03
2022-12-05T03:49:33.672Z,93103.00
2022-12-05T03:52:11.037Z,93107.53
2022-12-05T03:54:57.845Z,93096.22
2022-12-05T03:57:45.425Z,93114.81
2022-12-05T04:00:14.810Z,93108.84
2022-12-05T04:03:10.690Z,93112.41
2022-12-05T04:05:45.638Z,93103.69
2022-12-05T04:08:21.253Z,93105.28
2022-12-05T04:10:48.821Z,93091.06
2022-12-05T04:13:23.156Z,93087.16
2022-12-05T04:16:13.638Z,93075.84
2022-12-05T04:18:45.301Z,93080.41
2022-12-05T04:21:30.356Z,93088.47
2022-12-05T04:24:15.408Z,93087.53
2022-12-05T04:26:44.944Z,93078.41
2022-12-05T04:29:19.400Z,93075.84
2022-12-05T04:31:48.170Z,93082.00
2022-12-05T04:34:14.704Z,93090.28
2022-12-05T04:36:45.064Z,93076.72
2022-12-05T04:39:18.262Z,93091.78
2022-12-05T04:41:56.179Z,93093.38
2022-12-05T04:44:25.526Z,93091.78
2022-12-05T04:46:52.236Z,93116.03
2022-12-05T04:49:23.100Z,93118.28
2022-12-05T04:51:55.371Z,93120.03
2022-12-05T04:54:35.007Z,93139.25
2022-12-05T04:57:24.141Z,93151.22
2022-12-05T04:59:50.529Z,93168.38
2022-12-05T05:02:19.153Z,93181.00
2022-12-05T05:04:51.009Z,93188.28
2022-12-05T05:07:17.689Z,93211.16
2022-12-05T05:09:44.128Z,93211.38
2022-12-05T05:12:15.679Z,93238.16
2022-12-05T05:14:45.204Z,93261.84
2022-12-05T05:17:11.556Z,93289.78
2022-12-05T05:19:37.924Z,93303.97
2022-12-05T05:22:04.276Z,93304.78
2022-12-05T05:24:30.627Z,93305.75
2022-12-05T05:26:57.581Z,93317.66
2022-12-05T05:29:24.128Z,93318.44
2022-12-05T05:31:50.626Z,93331.34
2022-12-05T05:34:17.057Z,93340.03
2022-12-05T05:36:43.955Z,93340.88
2022-12-05T05:39:14.042Z,93346.81
2022-12-05T05:41:40.450Z,93357.09
2022-12-05T05:44:06.792Z,93365.50
2022-12-05T05:46:34.079Z,93377.41
2022-12-05T05:49:00.506Z,93384.16
2022-12-05T05:51:29.158Z,93407.03
2022-12-05T05:53:56.309Z,93412.19
2022-12-05T05:56:22.727Z,93429.63
2022-12-05T05:58:54.729Z,93438.94
2022-12-05T06:01:21.261Z,93442.81
2022-12-05T06:03:47.770Z,93457.66
2022-12-05T06:06:14.504Z,93466.31
2022-12-05T06:08:42.051Z,93484.34
2022-12-05T06:11:24.621Z,93500.00
2022-12-05T06:13:52.360Z,93502.75
2022-12-05T06:16:18.964Z,93519.00
2022-12-05T06:18:45.523Z,93538.81
2022-12-05T06:21:16.208Z,93551.03
2022-12-05T06:23:42.965Z,93561.69
2022-12-05T06:26:17.342Z,93586.00
2022-12-05T06:28:44.378Z,93605.16
2022-12-05T06:31:19.942Z,93625.41
2022-12-05T06:33:46.443Z,93632.50
2022-12-05T06:36:17.458Z,93648.44
2022-12-05T06:38:43.889Z,93670.94
2022-12-05T06:41:12.512Z,93682.06
2022-12-05T06:43:38.959Z,93691.69
2022-12-05T06:46:06.499Z,93702.69
2022-12-05T06:48:32.889Z,93711.66
2022-12-05T06:50:59.299Z,93720.84
2022-12-05T06:53:25.876Z,93735.50
2022-12-05T06:56:02.902Z,93735.19
2022-12-05T06:58:29.349Z,93740.34
2022-12-05T07:01:14.206Z,93750.66
2022-12-05T07:03:40.863Z,93752.56
2022-12-05T07:06:07.480Z,93766.09
2022-12-05T07:08:33.940Z,93766.09
2022-12-05T07:11:00.371Z,93767.72
2022-12-05T07:13:26.727Z,93772.88
2022-12-05T07:15:53.097Z,93785.75
2022-12-05T07:18:19.448Z,93781.25
2022-12-05T07:21:10.765Z,93803.13
2022-12-05T07:23:32.281Z,93787.34
2022-12-05T07:25:58.837Z,93816.00
2022-12-05T07:28:25.469Z,93824.19
2022-12-05T07:31:16.114Z,93816.00
2022-12-05T07:33:42.505Z,93835.31
2022-12-05T07:36:16.174Z,93830.78
2022-12-05T07:38:42.773Z,93832.41
2022-12-05T07:41:25.335Z,93831.47
2022-12-05T07:43:52.445Z,93834.69
2022-12-05T07:46:19.113Z,93840.13
2022-12-05T07:48:45.518Z,93839.06
2022-12-05T07:51:11.985Z,93838.88
2022-12-05T07:53:38.960Z,93846.59
2022-12-05T07:56:06.707Z,93848.25
2022-12-05T07:58:33.796Z,93870.41
2022-12-05T08:01:21.332Z,93864.28
2022-12-05T08:03:47.788Z,93869.97
2022-12-05T08:06:18.998Z,93876.19
2022-12-05T08:08:45.401Z,93874.28
2022-12-05T08:11:13.568Z,93872.69
2022-12-05T08:13:40.041Z,93875.91
2022-12-05T08:16:08.289Z,93874.00
2022-12-05T08:18:34.679Z,93873.19
2022-12-05T08:21:05.601Z,93862.06
2022-12-05T08:23:32.502Z,93861.75
2022-12-05T08:26:07.204Z,93869.63
2022-12-05T08:28:33.616Z,93869.34
2022-12-05T08:31:07.686Z,93877.22
2022-12-05T08:33:34.130Z,93877.22
2022-12-05T08:36:04.955Z,93870.13
2022-12-05T08:38:31.348Z,93876.94
2022-12-05T08:41:01.058Z,93881.75
2022-12-05T08:43:28.396Z,93872.91
2022-12-05T08:45:54.886Z,93882.59
2022-12-05T08:48:27.534Z,93875.34
2022-12-05T08:50:55.501Z,93877.94
2022-12-05T08:53:21.835Z,93881.31
2022-12-05T08:55:48.252Z,93872.47
2022-12-05T08:58:14.601Z,93882.78
2022-12-05T09:00:41.138Z,93891.47
2022-12-05T09:03:08.792Z,93887.66
2022-12-05T09:05:35.164Z,93890.88
2022-12-05T09:08:01.683Z,93906.63
2022-12-05T09:10:28.087Z,93909.06
2022-12-05T09:12:54.439Z,93921.44
2022-12-05T09:15:20.770Z,93931.06
2022-12-05T09:17:47.158Z,93944.13
2022-12-05T09:20:13.935Z,93957.16
2022-12-05T09:22:41.249Z,93955.53
2022-12-05T09:25:08.161Z,93949.78
2022-12-05T09:27:34.658Z,93948.81
2022-12-05T09:30:01.215Z,93953.31
2022-12-05T09:32:27.585Z,93954.13
2022-12-05T09:34:54.332Z,93960.09
2022-12-05T09:37:37.954Z,93952.84
2022-12-05T09:40:06.256Z,93951.09
2022-12-05T09:42:32.573Z,93952.72
2022-12-05T09:45:11.184Z,93955.94
2022-12-05T09:47:57.960Z,93955.00
2022-12-05T09:50:28.445Z,93966.84
2022-12-05T09:53:01.173Z,93971.19
2022-12-05T09:55:39.957Z,93971.41
2022-12-05T09:58:39.152Z,93965.97
2022-12-05T10:01:32.714Z,93967.88
2022-12-05T10:04:17.980Z,93965.97
2022-12-05T10:06:54.046Z,93965.13
2022-12-05T10:09:24.859Z,93968.53
2022-12-05T10:12:03.466Z,93964.84
2022-12-05T10:14:59.402Z,93946.94
2022-12-05T10:17:33.150Z,93899.44
2022-12-05T10:20:00.869Z,93870.81
2022-12-05T10:23:06.663Z,93812.00
2022-12-05T10:25:33.357Z,93794.94
2022-12-05T10:28:05.977Z,93781.09
2022-12-05T10:30:33.562Z,93775.63
2022-12-05T10:33:09.350Z,93766.91
2022-12-05T10:35:37.822Z,93767.59
2022-12-05T10:38:05.197Z,93784.31
2022-12-05T10:40:36.604Z,93772.06
2022-12-05T10:43:04.981Z,93758.75
2022-12-05T10:45:31.401Z,93773.38
2022-12-05T10:47:57.832Z,93775.81
2022-12-05T10:50:25.489Z,93794.00
2022-12-05T10:52:53.049Z,93798.03
2022-12-05T10:55:19.616Z,93795.63
2022-12-05T10:57:50.349Z,93801.44
2022-12-05T11:00:18.851Z,93805.31
2022-12-05T11:02:47.607Z,93796.78
2022-12-05T11:05:14.138Z,93806.44
2022-12-05T11:07:43.641Z,93810.78
2022-12-05T11:10:27.461Z,93807.25
2022-12-05T11:12:56.113Z,93812.41
2022-12-05T11:15:25.412Z,93819.97
2022-12-05T11:17:54.106Z,93819.00
2022-12-05T11:20:20.449Z,93820.13
2022-12-05T11:22:51.211Z,93821.91
2022-12-05T11:25:35.955Z,93827.84
2022-12-05T11:28:35.579Z,93820.78
2022-12-05T11:31:14.208Z,93818.84
2022-12-05T11:33:40.725Z,93820.78
2022-12-05T11:36:12.581Z,93811.47
2022-12-05T11:38:38.943Z,93822.91
2022-12-05T11:41:30.017Z,93824.00
2022-12-05T11:44:28.407Z,93825.13
2022-12-05T11:47:40.247Z,93783.75
2022-12-05T11:50:15.787Z,93768.97
2022-12-05T11:53:07.147Z,93765.72
2022-12-05T11:55:34.589Z,93781.19
2022-12-05T11:58:03.706Z,93763.81
2022-12-05T12:00:51.249Z,93754.59
2022-12-05T12:03:33.403Z,93743.81
2022-12-05T12:06:02.035Z,93732.22
2022-12-05T12:08:34.721Z,93710.94
2022-12-05T12:11:03.736Z,93691.94
2022-12-05T12:13:57.947Z,93672.91
2022-12-05T12:16:30.386Z,93670.94
2022-12-05T12:19:07.188Z,93665.97
2022-12-05T12:21:57.889Z,93672.72
2022-12-05T12:24:33.252Z,93677.41
2022-12-05T12:27:16.709Z,93695.47
2022-12-05T12:30:05.675Z,93704.50
2022-12-05T12:32:59.406Z,93732.22
2022-12-05T12:35:52.674Z,93724.81
2022-12-05T12:38:51.287Z,93742.22
2022-12-05T12:41:34.216Z,93743.81
2022-12-05T12:44:20.068Z,93730.13
2022-12-05T12:46:56.199Z,93731.59
2022-12-05T12:49:39.643Z,93731.28
2022-12-05T12:52:14.111Z,93735.63
2022-12-05T12:55:22.775Z,93745.94
2022-12-05T12:58:05.449Z,93754.50
2022-12-05T13:00:38.097Z,93770.59
2022-12-05T13:03:17.867Z,93795.09
2022-12-05T13:05:47.430Z,93800.56
2022-12-05T13:08:34.221Z,93807.81
2022-12-05T13:11:01.633Z,93792.88
2022-12-05T13:13:34.259Z,93809.13
2022-12-05T13:16:01.588Z,93804.47
2022-12-05T13:18:28.078Z,93804.16
2022-12-05T13:20:57.012Z,93807.69
2022-12-05T13:23:31.064Z,93815.28
2022-12-05T13:25:58.765Z,93826.72
2022-12-05T13:28:55.567Z,93831.22
2022-12-05T13:31:35.258Z,93848.00
2022-12-05T13:34:01.707Z,93857.03
2022-12-05T13:36:46.715Z,93868.28
2022-12-05T13:39:31.559Z,93862.19
2022-12-05T13:42:15.777Z,93853.47
2022-12-05T13:44:50.522Z,93841.06
2022-12-05T13:47:32.250Z,93853.47
2022-12-05T13:50:07.780Z,93844.75
2022-12-05T13:52:54.423Z,93837.34
2022-12-05T13:55:36.558Z,93833.81
2022-12-05T13:58:21.933Z,93830.28
2022-12-05T14:00:52.223Z,93829.94
2022-12-05T14:03:21.598Z,93830.63
2022-12-05T14:05:53.129Z,93822.53
2022-12-05T14:08:31.685Z,93826.91
2022-12-05T14:10:58.001Z,93825.78
2022-12-05T14:13:25.315Z,93814.34
2022-12-05T14:15:52.049Z,93815.16
2022-12-05T14:18:33.836Z,93813.22
2022-12-05T14:21:14.644Z,93808.88
2022-12-05T14:24:05.743Z,93827.41
2022-12-05T14:26:38.110Z,93832.06
2022-12-05T14:29:08.513Z,93823.84
2022-12-05T14:32:03.843Z,93824.81
2022-12-05T14:34:30.988Z,93824.81
2022-12-05T14:37:06.424Z,93831.59
2022-12-05T14:39:35.834Z,93824.66
2022-12-05T14:42:04.262Z,93829.00
2022-12-05T14:44:33.507Z,93834.16
2022-12-05T14:47:05.578Z,93832.25
2022-12-05T14:49:37.985Z,93832.09
2022-12-05T14:52:11.267Z,93834.69
2022-12-05T14:54:38.347Z,93839.16
2022-12-05T14:57:11.307Z,93858.06
2022-12-05T15:00:01.791Z,93860.47
2022-12-05T15:02:33.458Z,93866.44
2022-12-05T15:05:13.621Z,93877.09
2022-12-05T15:07:40.030Z,93888.34
2022-12-05T15:10:12.679Z,93889.31
2022-12-05T15:12:43.803Z,93906.41
2022-12-05T15:15:36.505Z,93908.06
2022-12-05T15:18:09.430Z,93918.38
2022-12-05T15:20:41.988Z,93920.00
2022-12-05T15:23:45.462Z,93921.91
2022-12-05T15:29:13.386Z,93925.44
2022-12-05T15:31:47.439Z,93940.94
2022-12-05T15:34:23.885Z,93960.25
2022-12-05T15:36:52.160Z,93972.53
2022-12-05T15:39:23.863Z,93986.41
2022-12-05T15:41:51.559Z,93993.16
2022-12-05T15:44:25.270Z,93998.00
2022-12-05T15:46:54.294Z,94014.09
2022-12-05T15:49:25.627Z,94019.25
2022-12-05T15:52:01.302Z,94023.59
2022-12-05T15:54:32.509Z,94043.91
2022-12-05T15:57:08.499Z,94063.41
2022-12-05T15:59:42.716Z,94065.00
2022-12-05T16:02:45.729Z,94063.88
2022-12-05T16:05:22.910Z,94079.16
2022-12-05T16:07:49.862Z,94068.56
2022-12-05T16:10:16.467Z,94093.03
2022-12-05T16:12:42.848Z,94077.22
2022-12-05T16:15:24.233Z,94079.50
2022-12-05T16:18:00.807Z,94074.84
2022-12-05T16:20:27.219Z,94083.72
2022-12-05T16:22:54.718Z,94095.97
2022-12-05T16:25:26.187Z,94080.47
2022-12-05T16:27:57.317Z,94098.19
2022-12-05T16:30:24.147Z,94094.34
2022-12-05T16:32:57.627Z,94106.56
2022-12-05T16:35:27.026Z,94104.97
2022-12-05T16:38:24.606Z,94102.81
2022-12-05T16:40:58.036Z,94103.34
2022-12-05T16:43:24.559Z,94122.94
2022-12-05T16:45:51.300Z,94120.72
2022-12-05T16:48:20.959Z,94129.44
2022-12-05T16:50:47.324Z,94125.22
2022-12-05T16:53:15.518Z,94134.31
2022-12-05T16:55:41.996Z,94150.06
2022-12-05T16:58:11.207Z,94162.31
2022-12-05T17:00:37.555Z,94180.50
2022-12-05T17:03:32.272Z,94185.34
2022-12-05T17:05:50.641Z,94194.59
2022-12-05T17:08:17.048Z,94199.75
2022-12-05T17:10:43.514Z,94208.44
2022-12-05T17:13:12.911Z,94231.78
2022-12-05T17:15:39.293Z,94262.81
2022-12-05T17:18:20.514Z,94261.25
2022-12-05T17:20:50.051Z,94262.59
2022-12-05T17:23:16.509Z,94279.03
2022-12-05T17:25:53.534Z,94288.69
2022-12-05T17:28:20.068Z,94287.47
2022-12-05T17:30:46.527Z,94295.84
2022-12-05T17:33:13.970Z,94311.59
2022-12-05T17:35:40.472Z,94325.47
2022-12-05T17:38:06.910Z,94337.41
2022-12-05T17:40:33.435Z,94331.97
2022-12-05T17:42:59.890Z,94342.28
2022-12-05T17:45:26.309Z,94342.00
2022-12-05T17:47:52.724Z,94348.78
2022-12-05T17:50:21.710Z,94343.63
2022-12-05T17:52:51.763Z,94377.06
2022-12-05T17:55:28.418Z,94373.53
2022-12-05T17:57:55.223Z,94385.19
2022-12-05T18:00:22.616Z,94386.81
2022-12-05T18:02:49.222Z,94390.84
2022-12-05T18:05:16.107Z,94388.44
2022-12-05T18:07:43.440Z,94404.19
2022-12-05T18:10:12.975Z,94419.41
2022-12-05T18:12:39.738Z,94440.91
2022-12-05T18:15:06.499Z,94442.50
2022-12-05T18:17:32.866Z,94452.56
2022-12-05T18:19:59.613Z,94456.75
2022-12-05T18:22:26.325Z,94463.41
2022-12-05T18:24:53.202Z,94465.03
2022-12-05T18:27:20.170Z,94476.44
2022-12-05T18:29:50.683Z,94480.78
2022-12-05T18:32:17.677Z,94475.47
2022-12-05T18:34:44.095Z,94488.69
2022-12-05T18:37:10.672Z,94492.06
2022-12-05T18:39:37.754Z,94499.00
2022-12-05T18:42:05.757Z,94494.50
2022-12-05T18:44:34.502Z,94501.72
2022-12-05T18:47:00.854Z,94529.69
2022-12-05T18:49:27.221Z,94525.06
2022-12-05T18:51:53.612Z,94528.03
2022-12-05T18:54:20.094Z,94520.28
2022-12-05T18:56:50.099Z,94522.06
2022-12-05T18:59:17.712Z,94507.13
2022-12-05T19:01:44.844Z,94509.03
2022-12-05T19:04:14.749Z,94508.06
2022-12-05T19:06:43.194Z,94519.91
2022-12-05T19:09:15.294Z,94516.09
2022-12-05T19:11:47.119Z,94522.47
2022-12-05T19:14:13.867Z,94522.88
2022-12-05T19:16:40.377Z,94521.25
2022-12-05T19:19:08.621Z,94515.13
2022-12-05T19:21:35.406Z,94533.75
2022-12-05T19:24:02.672Z,94534.16
2022-12-05T19:26:29.101Z,94539.19
2022-12-05T19:28:56.673Z,94557.91
2022-12-05T19:31:24.724Z,94573.38
2022-12-05T19:33:53.090Z,94560.63
2022-12-05T19:36:30.449Z,94546.50
2022-12-05T19:38:57.095Z,94546.75
2022-12-05T19:41:27.790Z,94559.81
2022-12-05T19:43:54.535Z,94554.66
2022-12-05T19:46:24.710Z,94553.00
2022-12-05T19:48:51.546Z,94550.28
2022-12-05T19:51:17.924Z,94554.91
2022-12-05T19:53:44.897Z,94556.53
2022-12-05T19:56:16.273Z,94547.84
2022-12-05T19:58:42.786Z,94557.50
2022-12-05T20:01:15.171Z,94560.34
2022-12-05T20:03:42.032Z,94554.91
2022-12-05T20:06:09.019Z,94560.34
2022-12-05T20:08:38.484Z,94556.81
2022-12-05T20:11:12.345Z,94559.25
2022-12-05T20:13:47.679Z,94561.00
2022-12-05T20:16:15.898Z,94561.69
2022-12-05T20:18:42.437Z,94568.09
2022-12-05T20:21:10.111Z,94585.06
2022-12-05T20:23:36.634Z,94567.69
2022-12-05T20:26:04.211Z,94572.56
2022-12-05T20:28:30.789Z,94567.41
2022-12-05T20:31:10.841Z,94558.72
2022-12-05T20:33:37.446Z,94562.25
2022-12-05T20:36:08.037Z,94553.28
2022-12-05T20:38:34.456Z,94564.81
2022-12-05T20:41:01.796Z,94560.63
2022-12-05T20:43:28.585Z,94549.75
2022-12-05T20:45:55.345Z,94549.75
2022-12-05T20:48:25.799Z,94576.09
2022-12-05T20:50:54.146Z,94578.97
2022-12-05T20:53:21.357Z,94575.44
2022-12-05T20:55:47.880Z,94585.06
2022-12-05T20:58:14.373Z,94574.75
2022-12-05T21:00:40.800Z,94567.97
2022-12-05T21:03:07.242Z,94569.56
2022-12-05T21:05:34.461Z,94551.91
2022-12-05T21:08:00.900Z,94542.94
2022-12-05T21:10:27.324Z,94530.88
2022-12-05T21:12:53.704Z,94514.97
2022-12-05T21:15:20.108Z,94513.63
2022-12-05T21:17:46.503Z,94519.06
2022-12-05T21:20:12.887Z,94529.94
2022-12-05T21:22:39.268Z,94524.09
2022-12-05T21:25:05.799Z,94517.97
2022-12-05T21:27:32.236Z,94496.13
2022-12-05T21:29:58.923Z,94489.47
2022-12-05T21:32:25.558Z,94460.69
2022-12-05T21:34:51.949Z,94439.47
2022-12-05T21:37:18.325Z,94420.19
2022-12-05T21:39:44.746Z,94422.38
2022-12-05T21:42:11.123Z,94401.41
2022-12-05T21:44:37.484Z,94400.31
2022-12-05T21:47:03.926Z,94386.63
2022-12-05T21:49:30.277Z,94385.94
2022-12-05T21:51:56.657Z,94381.75
2022-12-05T21:54:23.026Z,94382.44
2022-12-05T21:56:49.403Z,94373.72
2022-12-05T21:59:15.753Z,94382.97
2022-12-05T22:01:42.336Z,94377.97
2022-12-05T22:04:08.759Z,94357.19
2022-12-05T22:06:35.220Z,94342.06
2022-12-05T22:09:01.625Z,94335.44
2022-12-05T22:11:28.078Z,94332.22
2022-12-05T22:13:54.494Z,94320.78
2022-12-05T22:16:21.051Z,94309.94
2022-12-05T22:18:47.631Z,94299.50
2022-12-05T22:21:16.414Z,94294.59
2022-12-05T22:23:42.851Z,94258.84
2022-12-05T22:26:11.286Z,94234.09
2022-12-05T22:28:38.042Z,94220.53
2022-12-05T22:31:09.119Z,94205.31
2022-12-05T22:33:38.473Z,94187.13
2022-12-05T22:36:06.432Z,94174.38
2022-12-05T22:38:34.646Z,94156.97
2022-12-05T22:41:02.440Z,94139.88
2022-12-05T22:43:29.521Z,94143.72
2022-12-05T22:45:56.092Z,94135.31
2022-12-05T22:48:22.835Z,94123.38
2022-12-05T22:50:50.402Z,94108.72
2022-12-05T22:53:20.966Z,94100.84
2022-12-05T22:55:47.339Z,94102.13
2022-12-05T22:58:13.716Z,94104.34
2022-12-05T23:00:40.259Z,94089.19
2022-12-05T23:03:06.716Z,94066.63
2022-12-05T23:05:33.435Z,94057.25
2022-12-05T23:07:59.823Z,94033.06
2022-12-05T23:10:26.280Z,94005.00
2022-12-05T23:12:52.681Z,93986.94
2022-12-05T23:15:21.619Z,93963.72
2022-12-05T23:17:48.287Z,93896.34
2022-12-05T23:20:14.690Z,93883.94
2022-12-05T23:22:41.107Z,93853.47
2022-12-05T23:25:07.824Z,93839.59
2022-12-05T23:27:34.586Z,93832.00
2022-12-05T23:30:05.125Z,93799.28
2022-12-05T23:32:31.520Z,93789.94
2022-12-05T23:34:57.916Z,93778.34
2022-12-05T23:37:24.563Z,93769.63
2022-12-05T23:39:50.926Z,93742.41
2022-12-05T23:42:17.273Z,93712.88
2022-12-05T23:44:43.625Z,93698.38
2022-12-05T23:47:10.096Z,93690.97
2022-12-05T23:49:36.510Z,93682.41
2022-12-05T23:52:02.903Z,93667.75
2022-12-05T23:54:29.268Z,93639.38
2022-12-05T23:56:55.606Z,93649.03
2022-12-05T23:59:22.262Z,93626.47
